createdAt,value
2022-12-04T00:00:28.319Z,104.5
2022-12-04T00:01:44.616Z,103.5
2022-12-04T00:03:00.904Z,94.8
2022-12-04T00:04:17.192Z,103.9
2022-12-04T00:05:33.488Z,99.5
2022-12-04T00:06:49.791Z,94.6
2022-12-04T00:08:06.086Z,94.1
2022-12-04T00:09:22.376Z,100.3
2022-12-04T00:10:38.663Z,94.9
2022-12-04T00:11:53.974Z,108
2022-12-04T00:13:10.278Z,102.9
2022-12-04T00:14:26.572Z,103.7
2022-12-04T00:15:42.857Z,103.2
2022-12-04T00:16:59.151Z,99.3
2022-12-04T00:18:15.441Z,99.4
2022-12-04T00:19:31.750Z,99.6
2022-12-04T00:20:48.040Z,93.3
2022-12-04T00:22:04.338Z,103.3
2022-12-04T00:23:20.634Z,92.6
2022-12-04T00:24:36.925Z,97.4
2022-12-04T00:25:53.214Z,96.1
2022-12-04T00:27:09.496Z,101.4
2022-12-04T00:28:24.811Z,89.3
2022-12-04T00:29:41.103Z,107.9
2022-12-04T00:30:57.414Z,102.6
2022-12-04T00:32:13.688Z,98.9
2022-12-04T00:33:29.984Z,95.5
2022-12-04T00:34:46.277Z,102.9
2022-12-04T00:36:02.570Z,101.7
2022-12-04T00:37:18.881Z,99.8
2022-12-04T00:38:35.158Z,100.8
2022-12-04T00:39:51.451Z,99
2022-12-04T00:41:07.747Z,97.8
2022-12-04T00:42:24.048Z,98.9
2022-12-04T00:43:40.341Z,93
2022-12-04T00:44:55.660Z,97.2
2022-12-04T00:46:11.934Z,100
2022-12-04T00:47:28.227Z,88.1
2022-12-04T00:48:44.528Z,93.8
2022-12-04T00:50:00.832Z,90.5
2022-12-04T00:51:17.116Z,87.3
2022-12-04T00:52:33.403Z,89.6
2022-12-04T00:53:49.696Z,92.2
2022-12-04T00:55:05.997Z,97.2
2022-12-04T00:56:22.289Z,101
2022-12-04T00:57:38.586Z,102.6
2022-12-04T00:58:54.886Z,92.4
2022-12-04T01:00:11.167Z,97.8
2022-12-04T01:01:26.480Z,97.5
2022-12-04T01:02:42.774Z,92.1
2022-12-04T01:03:59.071Z,91.2
2022-12-04T01:05:15.370Z,93.6
2022-12-04T01:06:31.666Z,89.6
2022-12-04T01:07:47.946Z,93
2022-12-04T01:09:04.248Z,93.9
2022-12-04T01:10:20.541Z,94
2022-12-04T01:11:36.828Z,98.2
2022-12-04T01:12:53.135Z,89.4
2022-12-04T01:14:09.418Z,100
2022-12-04T01:15:25.712Z,100.3
2022-12-04T01:16:42.014Z,93.2
2022-12-04T01:17:57.311Z,99
2022-12-04T01:19:13.614Z,97.4
2022-12-04T01:20:29.908Z,97.1
2022-12-04T01:21:46.198Z,94.7
2022-12-04T01:23:02.504Z,96.7
2022-12-04T01:24:18.782Z,98.2
2022-12-04T01:25:35.000Z,97.3
2022-12-04T01:26:51.378Z,82.9
2022-12-04T01:28:07.000Z,97.3
2022-12-04T01:29:23.957Z,91.3
2022-12-04T01:30:40.251Z,98.6
2022-12-04T01:31:56.551Z,97.6
2022-12-04T01:33:12.855Z,95.9
2022-12-04T01:34:28.162Z,103.9
2022-12-04T01:35:44.458Z,96.5
2022-12-04T01:37:00.738Z,94
2022-12-04T01:38:17.030Z,91
2022-12-04T01:39:33.339Z,95.7
2022-12-04T01:40:49.619Z,89.8
2022-12-04T01:42:05.913Z,104
2022-12-04T01:43:22.210Z,97.9
2022-12-04T01:44:38.497Z,100.7
2022-12-04T01:45:54.805Z,100.2
2022-12-04T01:47:11.092Z,91.8
2022-12-04T01:48:27.378Z,95.3
2022-12-04T01:49:43.678Z,92.6
2022-12-04T01:50:58.983Z,96.9
2022-12-04T01:52:15.282Z,102.2
2022-12-04T01:53:31.577Z,96.4
2022-12-04T01:54:47.871Z,97.5
2022-12-04T01:56:04.160Z,92.6
2022-12-04T01:57:20.465Z,97.7
2022-12-04T01:58:36.754Z,90.7
2022-12-04T01:59:53.041Z,90.3
2022-12-04T02:01:09.350Z,97.7
2022-12-04T02:02:25.627Z,92.1
2022-12-04T02:03:41.936Z,87.4
2022-12-04T02:04:58.231Z,102.8
2022-12-04T02:06:14.518Z,94.8
2022-12-04T02:07:29.822Z,90.7
2022-12-04T02:08:46.111Z,97.8
2022-12-04T02:10:02.410Z,94.3
2022-12-04T02:11:18.707Z,95.4
2022-12-04T02:12:35.004Z,92.6
2022-12-04T02:13:51.307Z,89.8
2022-12-04T02:15:07.593Z,85.1
2022-12-04T02:16:23.887Z,92.7
2022-12-04T02:17:40.168Z,92.3
2022-12-04T02:18:56.467Z,87.1
2022-12-04T02:20:12.764Z,94.8
2022-12-04T02:21:29.054Z,91.1
2022-12-04T02:22:45.352Z,95
2022-12-04T02:24:00.662Z,97.7
2022-12-04T02:25:16.956Z,94.8
2022-12-04T02:26:33.258Z,98.4
2022-12-04T02:27:49.552Z,95.8
2022-12-04T02:29:05.829Z,97.6
2022-12-04T02:30:22.128Z,102.5
2022-12-04T02:31:38.419Z,89.9
2022-12-04T02:32:54.715Z,84.9
2022-12-04T02:34:11.023Z,92
2022-12-04T02:35:27.300Z,91
2022-12-04T02:36:43.595Z,87.9
2022-12-04T02:37:59.889Z,95.6
2022-12-04T02:39:16.181Z,90.3
2022-12-04T02:40:31.497Z,85.7
2022-12-04T02:41:47.795Z,94.5
2022-12-04T02:43:04.086Z,91
2022-12-04T02:44:20.372Z,93.4
2022-12-04T02:45:36.666Z,98.2
2022-12-04T02:46:52.966Z,87.7
2022-12-04T02:48:09.253Z,92.3
2022-12-04T02:49:25.552Z,102.1
2022-12-04T02:50:41.855Z,98.5
2022-12-04T02:51:58.149Z,103.7
2022-12-04T02:53:14.434Z,104.5
2022-12-04T02:54:30.727Z,111.9
2022-12-04T02:55:47.021Z,99.7
2022-12-04T02:57:02.330Z,110.1
2022-12-04T02:58:18.637Z,105.8
2022-12-04T02:59:34.916Z,105.1
2022-12-04T03:00:51.212Z,124.5
2022-12-04T03:02:07.505Z,118.2
2022-12-04T03:03:23.795Z,125.4
2022-12-04T03:04:40.103Z,118.2
2022-12-04T03:05:56.400Z,121.4
2022-12-04T03:07:12.692Z,123.9
2022-12-04T03:08:28.968Z,123.5
2022-12-04T03:09:45.277Z,123.4
2022-12-04T03:11:01.562Z,125.2
2022-12-04T03:12:17.857Z,131
2022-12-04T03:13:33.168Z,143.5
2022-12-04T03:14:49.455Z,135.3
2022-12-04T03:16:05.748Z,123.1
2022-12-04T03:17:22.044Z,135
2022-12-04T03:18:38.352Z,138.1
2022-12-04T03:19:54.653Z,145
2022-12-04T03:21:10.938Z,146.8
2022-12-04T03:22:27.229Z,135.5
2022-12-04T03:23:43.513Z,136.6
2022-12-04T03:24:59.812Z,130.6
2022-12-04T03:26:16.098Z,146.5
2022-12-04T03:27:32.407Z,132.5
2022-12-04T03:28:48.690Z,143.2
2022-12-04T03:30:04.006Z,143.6
2022-12-04T03:31:20.287Z,137.8
2022-12-04T03:32:36.589Z,143.5
2022-12-04T03:33:52.885Z,143.9
2022-12-04T03:35:09.181Z,147.5
2022-12-04T03:36:25.474Z,145.7
2022-12-04T03:37:41.761Z,136.7
2022-12-04T03:38:58.057Z,136
2022-12-04T03:40:14.344Z,148
2022-12-04T03:41:30.642Z,143.5
2022-12-04T03:42:46.948Z,140.9
2022-12-04T03:44:03.230Z,142.6
2022-12-04T03:45:19.539Z,141.4
2022-12-04T03:46:34.836Z,141.9
2022-12-04T03:47:51.128Z,143.6
2022-12-04T03:49:07.421Z,140.5
2022-12-04T03:50:23.712Z,137.4
2022-12-04T03:51:40.020Z,155.2
2022-12-04T03:52:56.299Z,152.8
2022-12-04T03:54:11.620Z,148.7
2022-12-04T03:55:27.919Z,150.2
2022-12-04T03:56:44.211Z,143.6
2022-12-04T03:58:00.503Z,141.9
2022-12-04T03:59:16.801Z,154.8
2022-12-04T04:00:33.094Z,142.1
2022-12-04T04:01:49.386Z,151
2022-12-04T04:03:05.678Z,148.9
2022-12-04T04:04:21.976Z,150.9
2022-12-04T04:05:38.278Z,159.2
2022-12-04T04:06:54.557Z,137.2
2022-12-04T04:08:10.857Z,147.3
2022-12-04T04:09:27.157Z,150.5
2022-12-04T04:10:42.458Z,153.1
2022-12-04T04:11:58.753Z,148.4
2022-12-04T04:13:15.051Z,150
2022-12-04T04:14:31.342Z,159
2022-12-04T04:15:47.634Z,162.1
2022-12-04T04:17:03.937Z,157.1
2022-12-04T04:18:20.231Z,147.9
2022-12-04T04:19:36.514Z,152.4
2022-12-04T04:20:52.812Z,151.9
2022-12-04T04:22:09.119Z,156.1
2022-12-04T04:23:25.403Z,146.2
2022-12-04T04:24:41.000Z,150.1
2022-12-04T04:25:57.986Z,149.4
2022-12-04T04:27:13.300Z,150.2
2022-12-04T04:28:29.584Z,165.5
2022-12-04T04:29:45.877Z,160.3
2022-12-04T04:31:02.179Z,156
2022-12-04T04:32:18.465Z,155.1
2022-12-04T04:33:34.772Z,151.8
2022-12-04T04:34:51.053Z,156.3
2022-12-04T04:36:07.350Z,156.5
2022-12-04T04:37:23.652Z,162.3
2022-12-04T04:38:39.944Z,159
2022-12-04T04:39:56.229Z,161.8
2022-12-04T04:41:12.529Z,158.3
2022-12-04T04:42:28.821Z,160.3
2022-12-04T04:43:44.128Z,152.1
2022-12-04T04:45:00.435Z,153.5
2022-12-04T04:46:16.713Z,159
2022-12-04T04:47:33.011Z,159.6
2022-12-04T04:48:49.307Z,161.9
2022-12-04T04:50:05.597Z,165.5
2022-12-04T04:51:21.907Z,157.2
2022-12-04T04:52:38.193Z,163
2022-12-04T04:53:54.484Z,167.9
2022-12-04T04:55:10.779Z,177.3
2022-12-04T04:56:27.079Z,172.4
2022-12-04T04:57:43.376Z,165.8
2022-12-04T04:58:59.666Z,171.5
2022-12-04T05:00:14.967Z,166.3
2022-12-04T05:01:31.260Z,166
2022-12-04T05:02:47.552Z,149.5
2022-12-04T05:04:03.848Z,160.5
2022-12-04T05:05:20.143Z,160
2022-12-04T05:06:36.448Z,169.8
2022-12-04T05:07:52.723Z,176.2
2022-12-04T05:09:09.036Z,168.4
2022-12-04T05:10:25.314Z,171.3
2022-12-04T05:11:41.610Z,172.5
2022-12-04T05:12:57.909Z,171.3
2022-12-04T05:14:14.212Z,170.8
2022-12-04T05:15:30.485Z,169.5
2022-12-04T05:16:45.796Z,167.8
2022-12-04T05:18:02.091Z,171.4
2022-12-04T05:19:18.398Z,176
2022-12-04T05:20:34.682Z,188
2022-12-04T05:21:50.979Z,174.3
2022-12-04T05:23:07.269Z,172.6
2022-12-04T05:24:23.572Z,169.6
2022-12-04T05:25:39.859Z,174.3
2022-12-04T05:26:56.155Z,167.2
2022-12-04T05:28:12.443Z,160
2022-12-04T05:29:28.734Z,174.5
2022-12-04T05:30:45.040Z,178.7
2022-12-04T05:32:01.325Z,172.2
2022-12-04T05:33:16.633Z,183.2
2022-12-04T05:34:32.934Z,174.7
2022-12-04T05:35:49.225Z,188.5
2022-12-04T05:37:05.521Z,168.1
2022-12-04T05:38:21.821Z,180.4
2022-12-04T05:39:38.105Z,170.4
2022-12-04T05:40:54.398Z,181
2022-12-04T05:42:10.707Z,177.8
2022-12-04T05:43:27.002Z,177.2
2022-12-04T05:44:43.281Z,173
2022-12-04T05:45:59.584Z,169.8
2022-12-04T05:47:15.868Z,176.4
2022-12-04T05:48:32.178Z,172.7
2022-12-04T05:49:47.480Z,179.9
2022-12-04T05:51:03.768Z,175.5
2022-12-04T05:52:20.055Z,169.5
2022-12-04T05:53:36.354Z,173.9
2022-12-04T05:54:52.662Z,168.3
2022-12-04T05:56:08.949Z,184
2022-12-04T05:57:25.249Z,175.8
2022-12-04T05:58:41.525Z,176.6
2022-12-04T05:59:57.823Z,180.7
2022-12-04T06:01:14.121Z,176.9
2022-12-04T06:02:30.421Z,184.9
2022-12-04T06:03:46.717Z,169.2
2022-12-04T06:05:03.006Z,174.2
2022-12-04T06:06:18.320Z,176.3
2022-12-04T06:07:34.603Z,175.1
2022-12-04T06:08:50.896Z,183
2022-12-04T06:10:07.203Z,163.7
2022-12-04T06:11:23.490Z,181.1
2022-12-04T06:12:39.790Z,176.4
2022-12-04T06:13:56.077Z,174.8
2022-12-04T06:15:12.380Z,177.4
2022-12-04T06:16:28.660Z,186.9
2022-12-04T06:17:44.958Z,190.7
2022-12-04T06:19:01.255Z,167.7
2022-12-04T06:20:17.548Z,173.9
2022-12-04T06:21:33.834Z,193.9
2022-12-04T06:22:49.139Z,175.7
2022-12-04T06:24:05.439Z,176
2022-12-04T06:25:21.731Z,189.1
2022-12-04T06:26:38.029Z,191.9
2022-12-04T06:27:54.327Z,195.5
2022-12-04T06:29:10.613Z,223
2022-12-04T06:30:26.916Z,220.4
2022-12-04T06:31:43.211Z,195.3
2022-12-04T06:32:59.449Z,193.9
2022-12-04T06:34:15.733Z,188.9
2022-12-04T06:35:31.996Z,171.9
2022-12-04T06:36:48.298Z,194.9
2022-12-04T06:38:04.578Z,182.6
2022-12-04T06:39:19.841Z,186.1
2022-12-04T06:40:36.098Z,183.1
2022-12-04T06:41:52.394Z,184.8
2022-12-04T06:43:08.642Z,179.8
2022-12-04T06:44:24.878Z,187.6
2022-12-04T06:45:41.114Z,194.9
2022-12-04T06:46:57.352Z,186.4
2022-12-04T06:48:13.597Z,181.1
2022-12-04T06:49:29.878Z,180.4
2022-12-04T06:50:46.136Z,189.1
2022-12-04T06:52:02.372Z,200.2
2022-12-04T06:53:18.616Z,196.8
2022-12-04T06:54:34.869Z,191.4
2022-12-04T06:55:50.105Z,203.5
2022-12-04T06:57:06.353Z,181.7
2022-12-04T06:58:22.591Z,183.6
2022-12-04T06:59:38.831Z,194.1
2022-12-04T07:00:55.069Z,181.3
2022-12-04T07:02:11.310Z,195.8
2022-12-04T07:03:27.547Z,203.2
2022-12-04T07:04:43.788Z,186.4
2022-12-04T07:06:00.038Z,192.3
2022-12-04T07:07:16.265Z,187.7
2022-12-04T07:08:32.507Z,188.3
2022-12-04T07:09:48.754Z,178.7
2022-12-04T07:11:04.986Z,190.4
2022-12-04T07:12:20.252Z,190
2022-12-04T07:13:36.498Z,186.5
2022-12-04T07:14:52.732Z,185.6
2022-12-04T07:16:08.980Z,202.1
2022-12-04T07:17:25.211Z,182.2
2022-12-04T07:18:41.443Z,192.3
2022-12-04T07:19:57.687Z,200
2022-12-04T07:21:13.923Z,182.2
2022-12-04T07:22:30.172Z,188.4
2022-12-04T07:23:46.406Z,189.6
2022-12-04T07:25:02.649Z,188.6
2022-12-04T07:26:18.880Z,196.2
2022-12-04T07:27:35.118Z,192.5
2022-12-04T07:28:50.380Z,184.7
2022-12-04T07:30:06.615Z,208.6
2022-12-04T07:31:22.858Z,188.1
2022-12-04T07:32:39.097Z,176.9
2022-12-04T07:33:55.352Z,217.1
2022-12-04T07:35:11.581Z,222.7
2022-12-04T07:36:27.826Z,206.9
2022-12-04T07:37:44.061Z,211.4
2022-12-04T07:39:00.301Z,269.4
2022-12-04T07:40:16.554Z,269.3
2022-12-04T07:41:32.774Z,197.6
2022-12-04T07:42:49.030Z,199.1
2022-12-04T07:44:05.263Z,201.2
2022-12-04T07:45:20.512Z,185.8
2022-12-04T07:46:36.767Z,196.8
2022-12-04T07:47:53.003Z,199.8
2022-12-04T07:49:09.239Z,198.4
2022-12-04T07:50:25.473Z,195.6
2022-12-04T07:51:41.708Z,208.2
2022-12-04T07:52:57.967Z,196
2022-12-04T07:54:14.204Z,197.2
2022-12-04T07:55:30.430Z,190.2
2022-12-04T07:56:46.672Z,189.8
2022-12-04T07:58:02.908Z,191.7
2022-12-04T07:59:19.153Z,185.4
2022-12-04T08:00:35.399Z,195
2022-12-04T08:01:50.659Z,184.5
2022-12-04T08:03:06.884Z,195.9
2022-12-04T08:04:23.123Z,210.2
2022-12-04T08:05:39.368Z,207.7
2022-12-04T08:06:55.616Z,177.6
2022-12-04T08:08:11.851Z,211.6
2022-12-04T08:09:27.109Z,197.9
2022-12-04T08:10:43.343Z,200
2022-12-04T08:11:59.581Z,186.7
2022-12-04T08:13:15.821Z,193.6
2022-12-04T08:14:32.062Z,188.5
2022-12-04T08:15:48.302Z,200.3
2022-12-04T08:17:04.561Z,196.9
2022-12-04T08:18:20.784Z,177.3
2022-12-04T08:19:37.030Z,193.6
2022-12-04T08:20:53.267Z,206.7
2022-12-04T08:22:09.508Z,189.5
2022-12-04T08:23:25.750Z,190.2
2022-12-04T08:24:41.990Z,197.8
2022-12-04T08:25:57.242Z,200.7
2022-12-04T08:27:13.486Z,194.9
2022-12-04T08:28:29.717Z,191.4
2022-12-04T08:29:45.964Z,193.9
2022-12-04T08:31:02.208Z,192.2
2022-12-04T08:32:18.452Z,196.1
2022-12-04T08:33:34.687Z,192.6
2022-12-04T08:34:50.929Z,190.7
2022-12-04T08:36:07.155Z,187.3
2022-12-04T08:37:23.414Z,182.3
2022-12-04T08:38:39.648Z,203
2022-12-04T08:39:55.895Z,216.5
2022-12-04T08:41:12.129Z,196.7
2022-12-04T08:42:27.379Z,207.6
2022-12-04T08:43:43.615Z,212.8
2022-12-04T08:44:59.860Z,209.5
2022-12-04T08:46:16.090Z,200.2
2022-12-04T08:47:32.337Z,195.9
2022-12-04T08:48:48.575Z,203.2
2022-12-04T08:50:04.816Z,194.8
2022-12-04T08:51:21.058Z,201.2
2022-12-04T08:52:37.304Z,194.8
2022-12-04T08:53:53.534Z,208.3
2022-12-04T08:55:09.780Z,206.9
2022-12-04T08:56:26.018Z,206.9
2022-12-04T08:57:42.255Z,201.8
2022-12-04T08:58:57.521Z,193.4
2022-12-04T09:00:13.765Z,192.6
2022-12-04T09:01:29.987Z,199.8
2022-12-04T09:02:46.229Z,193.3
2022-12-04T09:04:02.484Z,204.4
2022-12-04T09:05:18.716Z,202.8
2022-12-04T09:06:34.952Z,198.8
2022-12-04T09:07:51.189Z,206.3
2022-12-04T09:09:07.432Z,198.1
2022-12-04T09:10:23.688Z,193.4
2022-12-04T09:11:39.904Z,199.6
2022-12-04T09:12:56.155Z,196.3
2022-12-04T09:14:12.400Z,206.7
2022-12-04T09:15:27.651Z,207.1
2022-12-04T09:16:43.885Z,182.5
2022-12-04T09:18:00.126Z,209.7
2022-12-04T09:19:16.372Z,202.9
2022-12-04T09:20:32.611Z,201.3
2022-12-04T09:21:48.850Z,219.9
2022-12-04T09:23:05.081Z,193.3
2022-12-04T09:24:21.326Z,195.7
2022-12-04T09:25:37.565Z,203.9
2022-12-04T09:26:53.816Z,203.6
2022-12-04T09:28:10.061Z,209
2022-12-04T09:29:26.296Z,208
2022-12-04T09:30:42.524Z,207.5
2022-12-04T09:31:57.786Z,191.7
2022-12-04T09:33:14.036Z,211
2022-12-04T09:34:30.271Z,211.8
2022-12-04T09:35:46.502Z,206.9
2022-12-04T09:37:02.746Z,208.9
2022-12-04T09:38:18.987Z,211.3
2022-12-04T09:39:35.227Z,211.9
2022-12-04T09:40:51.474Z,195.4
2022-12-04T09:42:07.711Z,201.6
2022-12-04T09:43:23.949Z,204.7
2022-12-04T09:44:40.185Z,192.7
2022-12-04T09:45:56.434Z,204.7
2022-12-04T09:47:12.675Z,201.8
2022-12-04T09:48:27.914Z,213.1
2022-12-04T09:49:44.153Z,208.9
2022-12-04T09:51:00.404Z,203.5
2022-12-04T09:52:16.646Z,199.1
2022-12-04T09:53:32.873Z,184.9
2022-12-04T09:54:49.122Z,203.3
2022-12-04T09:56:05.349Z,195.8
2022-12-04T09:57:21.596Z,194.1
2022-12-04T09:58:37.832Z,199.4
2022-12-04T09:59:54.082Z,191.4
2022-12-04T10:01:10.314Z,191.2
2022-12-04T10:02:26.567Z,201.1
2022-12-04T10:03:42.800Z,210.4
2022-12-04T10:04:58.048Z,194.6
2022-12-04T10:06:14.293Z,200.4
2022-12-04T10:07:30.530Z,204
2022-12-04T10:08:46.783Z,204.6
2022-12-04T10:10:03.011Z,202.5
2022-12-04T10:11:19.247Z,201.2
2022-12-04T10:12:35.483Z,200.3
2022-12-04T10:13:51.739Z,204.7
2022-12-04T10:15:07.977Z,190.5
2022-12-04T10:16:24.220Z,198.4
2022-12-04T10:17:40.449Z,210.8
2022-12-04T10:18:56.695Z,198
2022-12-04T10:20:12.932Z,202.6
2022-12-04T10:21:28.198Z,208
2022-12-04T10:22:44.438Z,201
2022-12-04T10:24:00.669Z,200.7
2022-12-04T10:25:16.911Z,203.5
2022-12-04T10:26:33.141Z,206.9
2022-12-04T10:27:49.384Z,194.3
2022-12-04T10:29:05.626Z,207.1
2022-12-04T10:30:21.858Z,200.7
2022-12-04T10:31:38.114Z,199
2022-12-04T10:32:54.341Z,193
2022-12-04T10:34:10.587Z,199.4
2022-12-04T10:35:26.819Z,202
2022-12-04T10:36:43.075Z,202.5
2022-12-04T10:37:58.324Z,207.4
2022-12-04T10:39:14.558Z,192.9
2022-12-04T10:40:30.796Z,206.6
2022-12-04T10:41:47.042Z,195.6
2022-12-04T10:43:03.282Z,208.8
2022-12-04T10:44:19.529Z,195.3
2022-12-04T10:45:35.756Z,204.5
2022-12-04T10:46:52.006Z,216.5
2022-12-04T10:48:08.241Z,210.8
2022-12-04T10:49:24.488Z,207.1
2022-12-04T10:50:40.724Z,213.1
2022-12-04T10:51:56.959Z,196.1
2022-12-04T10:53:13.197Z,204.9
2022-12-04T10:54:28.448Z,204.2
2022-12-04T10:55:44.690Z,208
2022-12-04T10:57:00.930Z,217.8
2022-12-04T10:58:17.165Z,208
2022-12-04T10:59:33.411Z,206
2022-12-04T11:00:49.656Z,193.2
2022-12-04T11:02:05.898Z,194.6
2022-12-04T11:03:22.139Z,198.1
2022-12-04T11:04:38.376Z,196.6
2022-12-04T11:05:54.612Z,183.1
2022-12-04T11:07:10.850Z,204.1
2022-12-04T11:08:27.084Z,192.2
2022-12-04T11:09:43.333Z,187.4
2022-12-04T11:10:58.585Z,186.2
2022-12-04T11:12:14.831Z,198.9
2022-12-04T11:13:31.067Z,189.7
2022-12-04T11:14:47.000Z,180.9
2022-12-04T11:16:03.542Z,190.2
2022-12-04T11:17:19.784Z,185.7
2022-12-04T11:18:36.025Z,193
2022-12-04T11:19:52.264Z,200.5
2022-12-04T11:21:08.505Z,185.8
2022-12-04T11:22:24.748Z,190.1
2022-12-04T11:23:40.987Z,184.5
2022-12-04T11:24:57.224Z,189.6
2022-12-04T11:26:13.470Z,178.5
2022-12-04T11:27:28.724Z,182.4
2022-12-04T11:28:44.957Z,177
2022-12-04T11:30:01.199Z,185.6
2022-12-04T11:31:17.445Z,174.6
2022-12-04T11:32:33.685Z,173.7
2022-12-04T11:33:49.920Z,175.1
2022-12-04T11:35:06.166Z,175.8
2022-12-04T11:36:22.399Z,181.1
2022-12-04T11:37:38.640Z,187.2
2022-12-04T11:38:54.877Z,171
2022-12-04T11:40:11.123Z,170.9
2022-12-04T11:41:27.366Z,186
2022-12-04T11:42:43.595Z,200.9
2022-12-04T11:43:58.857Z,193.8
2022-12-04T11:45:15.088Z,173.9
2022-12-04T11:46:31.326Z,179.5
2022-12-04T11:47:47.577Z,178.4
2022-12-04T11:49:03.820Z,178.3
2022-12-04T11:50:20.047Z,188.4
2022-12-04T11:51:36.302Z,171.7
2022-12-04T11:52:52.538Z,180.2
2022-12-04T11:54:08.772Z,168.6
2022-12-04T11:55:25.022Z,179.5
2022-12-04T11:56:41.264Z,170.1
2022-12-04T11:57:57.487Z,178.7
2022-12-04T11:59:13.725Z,173.6
2022-12-04T12:00:28.985Z,181.2
2022-12-04T12:01:45.239Z,178.5
2022-12-04T12:03:01.458Z,173.2
2022-12-04T12:04:17.710Z,167.6
2022-12-04T12:05:33.946Z,168.9
2022-12-04T12:06:50.184Z,166.6
2022-12-04T12:08:06.440Z,170.2
2022-12-04T12:09:22.666Z,176.2
2022-12-04T12:10:38.905Z,165.8
2022-12-04T12:11:55.139Z,178.1
2022-12-04T12:13:11.387Z,171.8
2022-12-04T12:14:27.622Z,188
2022-12-04T12:15:43.873Z,168.3
2022-12-04T12:16:59.132Z,192
2022-12-04T12:18:15.357Z,182.3
2022-12-04T12:19:31.599Z,184.4
2022-12-04T12:20:47.843Z,187.9
2022-12-04T12:22:04.087Z,177.2
2022-12-04T12:23:20.316Z,184
2022-12-04T12:24:35.578Z,180.7
2022-12-04T12:25:51.824Z,188.3
2022-12-04T12:27:08.063Z,183.4
2022-12-04T12:28:24.297Z,222.8
2022-12-04T12:29:40.551Z,175.6
2022-12-04T12:30:56.783Z,177.9
2022-12-04T12:32:13.029Z,191.4
2022-12-04T12:33:29.256Z,193.5
2022-12-04T12:34:45.494Z,176.5
2022-12-04T12:36:01.738Z,182.2
2022-12-04T12:37:17.995Z,181.2
2022-12-04T12:38:34.223Z,191.7
2022-12-04T12:39:50.458Z,184.9
2022-12-04T12:41:05.726Z,187.2
2022-12-04T12:42:21.960Z,173.5
2022-12-04T12:43:38.203Z,185.5
2022-12-04T12:44:54.431Z,175.3
2022-12-04T12:46:10.676Z,179.1
2022-12-04T12:47:26.915Z,185.8
2022-12-04T12:48:43.161Z,189.6
2022-12-04T12:49:59.391Z,185.3
2022-12-04T12:51:15.637Z,174.8
2022-12-04T12:52:31.875Z,180.5
2022-12-04T12:53:48.120Z,177.9
2022-12-04T12:55:04.357Z,190.3
2022-12-04T12:56:20.588Z,168.7
2022-12-04T12:57:35.845Z,191.4
2022-12-04T12:58:52.098Z,180.2
2022-12-04T13:00:08.338Z,186.2
2022-12-04T13:01:24.565Z,174.7
2022-12-04T13:02:40.807Z,180.6
2022-12-04T13:03:57.045Z,164.6
2022-12-04T13:05:13.298Z,186.1
2022-12-04T13:06:29.524Z,176.8
2022-12-04T13:07:45.774Z,185.5
2022-12-04T13:09:02.000Z,189.4
2022-12-04T13:10:18.253Z,188.2
2022-12-04T13:11:34.494Z,170.6
2022-12-04T13:12:50.722Z,187.7
2022-12-04T13:14:05.983Z,185.6
2022-12-04T13:15:22.218Z,192.5
2022-12-04T13:16:38.464Z,174.1
2022-12-04T13:17:54.700Z,181.3
2022-12-04T13:19:10.936Z,184.5
2022-12-04T13:20:27.175Z,173.4
2022-12-04T13:21:43.425Z,169.4
2022-12-04T13:22:59.654Z,175.5
2022-12-04T13:24:15.909Z,191.2
2022-12-04T13:25:32.138Z,185.3
2022-12-04T13:26:48.389Z,184.1
2022-12-04T13:28:04.000Z,177.5
2022-12-04T13:29:20.856Z,181.3
2022-12-04T13:30:36.125Z,182
2022-12-04T13:31:52.363Z,170.9
2022-12-04T13:33:08.594Z,185.5
2022-12-04T13:34:24.830Z,194.2
2022-12-04T13:35:41.073Z,178.2
2022-12-04T13:36:57.324Z,183.2
2022-12-04T13:38:13.547Z,182
2022-12-04T13:39:29.789Z,191.9
2022-12-04T13:40:46.030Z,186.3
2022-12-04T13:42:02.266Z,194.5
2022-12-04T13:43:18.513Z,200.5
2022-12-04T13:44:34.749Z,191.6
2022-12-04T13:45:51.005Z,196
2022-12-04T13:47:06.251Z,194.4
2022-12-04T13:48:22.484Z,191.5
2022-12-04T13:49:38.725Z,202.5
2022-12-04T13:50:54.980Z,191.4
2022-12-04T13:52:11.208Z,195.2
2022-12-04T13:53:27.445Z,206
2022-12-04T13:54:43.686Z,199.9
2022-12-04T13:55:59.937Z,197.8
2022-12-04T13:57:16.175Z,188.1
2022-12-04T13:58:32.409Z,195.3
2022-12-04T13:59:48.644Z,198
2022-12-04T14:01:04.900Z,197.5
2022-12-04T14:02:21.128Z,197.4
2022-12-04T14:03:36.380Z,193.3
2022-12-04T14:04:52.614Z,201.2
2022-12-04T14:06:08.870Z,201.5
2022-12-04T14:07:25.100Z,195.6
2022-12-04T14:08:41.335Z,211.9
2022-12-04T14:09:57.578Z,209.1
2022-12-04T14:11:13.815Z,211.5
2022-12-04T14:12:30.059Z,207.9
2022-12-04T14:13:46.298Z,202.9
2022-12-04T14:15:02.543Z,213
2022-12-04T14:16:18.788Z,213.9
2022-12-04T14:17:35.018Z,212.5
2022-12-04T14:18:51.260Z,210.6
2022-12-04T14:20:06.519Z,254.2
2022-12-04T14:21:22.747Z,221.3
2022-12-04T14:22:39.000Z,209.7
2022-12-04T14:23:55.230Z,206.9
2022-12-04T14:25:11.484Z,201
2022-12-04T14:26:27.707Z,219.1
2022-12-04T14:27:43.947Z,204.1
2022-12-04T14:29:00.190Z,210.8
2022-12-04T14:30:16.441Z,203.7
2022-12-04T14:31:32.679Z,210.3
2022-12-04T14:32:48.915Z,222.7
2022-12-04T14:34:05.156Z,213.2
2022-12-04T14:35:21.402Z,207.4
2022-12-04T14:36:36.661Z,214.6
2022-12-04T14:37:52.886Z,217.9
2022-12-04T14:39:09.134Z,216.4
2022-12-04T14:40:25.368Z,215.7
2022-12-04T14:41:41.612Z,209.4
2022-12-04T14:42:57.848Z,206.4
2022-12-04T14:44:14.082Z,221.9
2022-12-04T14:45:30.323Z,217.2
2022-12-04T14:46:46.568Z,231.7
2022-12-04T14:48:02.800Z,217
2022-12-04T14:49:19.059Z,232.6
2022-12-04T14:50:35.296Z,217.4
2022-12-04T14:51:51.533Z,222
2022-12-04T14:53:06.779Z,226.4
2022-12-04T14:54:23.029Z,210.5
2022-12-04T14:55:39.255Z,228
2022-12-04T14:56:55.499Z,226.4
2022-12-04T14:58:11.740Z,222.4
2022-12-04T14:59:27.986Z,224.4
2022-12-04T15:00:44.232Z,224.4
2022-12-04T15:02:00.461Z,221.1
2022-12-04T15:03:16.702Z,218.3
2022-12-04T15:04:32.945Z,253.6
2022-12-04T15:05:49.185Z,233.1
2022-12-04T15:07:05.420Z,232.5
2022-12-04T15:08:21.655Z,220.4
2022-12-04T15:09:36.981Z,201.4
2022-12-04T15:10:53.271Z,215.1
2022-12-04T15:12:09.502Z,216.8
2022-12-04T15:13:25.741Z,224.7
2022-12-04T15:14:41.980Z,211.9
2022-12-04T15:15:58.223Z,220
2022-12-04T15:17:14.468Z,215.5
2022-12-04T15:18:30.716Z,223.5
2022-12-04T15:19:46.950Z,237.6
2022-12-04T15:21:03.243Z,211.8
2022-12-04T15:22:19.543Z,201.8
2022-12-04T15:23:35.829Z,219
2022-12-04T15:24:52.113Z,201.7
2022-12-04T15:26:07.422Z,220.2
2022-12-04T15:27:23.726Z,229.4
2022-12-04T15:28:40.018Z,213.9
2022-12-04T15:29:56.318Z,225
2022-12-04T15:31:12.613Z,206.7
2022-12-04T15:32:28.897Z,212.2
2022-12-04T15:33:45.200Z,214
2022-12-04T15:35:01.487Z,212.7
2022-12-04T15:36:17.772Z,210.2
2022-12-04T15:37:34.070Z,201.6
2022-12-04T15:38:50.359Z,211.1
2022-12-04T15:40:06.661Z,207
2022-12-04T15:41:22.953Z,222.7
2022-12-04T15:42:38.268Z,208.2
2022-12-04T15:43:54.552Z,213
2022-12-04T15:45:10.863Z,209.7
2022-12-04T15:46:27.151Z,198.3
2022-12-04T15:47:43.439Z,208.9
2022-12-04T15:48:59.729Z,204.1
2022-12-04T15:50:16.000Z,210
2022-12-04T15:51:32.323Z,198
2022-12-04T15:52:48.613Z,202.5
2022-12-04T15:54:04.907Z,193.6
2022-12-04T15:55:21.203Z,203.8
2022-12-04T15:56:37.497Z,202.2
2022-12-04T15:57:53.782Z,205.8
2022-12-04T15:59:09.099Z,210
2022-12-04T16:00:25.385Z,213.6
2022-12-04T16:01:41.689Z,209.8
2022-12-04T16:02:57.987Z,191.4
2022-12-04T16:04:14.267Z,206.4
2022-12-04T16:05:30.565Z,212.2
2022-12-04T16:06:46.862Z,217
2022-12-04T16:08:03.149Z,209.7
2022-12-04T16:09:19.443Z,205
2022-12-04T16:10:35.737Z,212.4
2022-12-04T16:11:52.029Z,217.8
2022-12-04T16:13:08.331Z,212.9
2022-12-04T16:14:24.632Z,220.4
2022-12-04T16:15:39.927Z,209.3
2022-12-04T16:16:56.226Z,208.4
2022-12-04T16:18:12.530Z,219.7
2022-12-04T16:19:28.814Z,217.6
2022-12-04T16:20:45.102Z,209.2
2022-12-04T16:22:01.407Z,225.4
2022-12-04T16:23:17.693Z,219
2022-12-04T16:24:34.003Z,212.3
2022-12-04T16:25:50.278Z,216.6
2022-12-04T16:27:06.577Z,227
2022-12-04T16:28:22.883Z,215.5
2022-12-04T16:29:39.170Z,205.6
2022-12-04T16:30:55.456Z,223
2022-12-04T16:32:10.760Z,218.5